Time;durP1;ratioP1;P1;durP2;ratioP2;P2;SDS_P1;SDS_P2;PMS_P1;PMS_P2;Temp;Humidity;BMP_temperature;BMP_pressure;BME280_temperature;BME280_humidity;BME280_pressure;Samples;Min_cycle;Max_cycle;Signal;HPM_P1;HPM_P2
2022/08/22 00:00:20;;;;;;;4.65;2.35;;;;;;;17.37;94.23;100426.47;3495538;82;98675;-92
2022/08/22 00:05:39;;;;;;;8.18;2.52;;;;;;;17.36;94.21;100433.25;3509654;83;26440;-92
2022/08/22 00:10:54;;;;;;;6.17;2.50;;;;;;;17.37;94.16;100436.20;3502244;82;98629;-92
2022/08/22 00:16:19;;;;;;;7.90;2.87;;;;;;;17.31;93.96;100434.53;3509517;82;98523;-89
2022/08/22 00:21:28;;;;;;;6.22;2.35;;;;;;;17.30;94.01;100434.94;3513179;83;26457;-92
2022/08/22 00:27:03;;;;;;;5.87;2.27;;;;;;;17.28;94.16;100438.76;3506900;82;98938;-92
2022/08/22 00:32:42;;;;;;;5.95;2.58;;;;;;;17.28;94.33;100440.92;3502956;83;26185;-92
2022/08/22 00:38:17;;;;;;;6.62;2.47;;;;;;;17.27;94.36;100442.75;3504315;82;98559;-92
2022/08/22 00:43:33;;;;;;;6.10;2.35;;;;;;;17.23;94.22;100437.22;3514792;82;26476;-92
2022/08/22 00:49:12;;;;;;;8.50;2.40;;;;;;;17.19;94.34;100439.30;3488901;83;135712;-92
2022/08/22 00:54:43;;;;;;;5.20;2.62;;;;;;;17.21;94.59;100446.61;3508694;83;26281;-91
2022/08/22 01:00:14;;;;;;;5.75;2.70;;;;;;;17.22;94.72;100443.23;3484807;83;98401;-91
2022/08/22 01:05:44;;;;;;;9.45;2.70;;;;;;;17.20;94.77;100449.20;3486398;83;29124;-91
2022/08/22 01:11:37;;;;;;;4.40;2.20;;;;;;;17.22;94.81;100451.58;3488994;83;98288;-91
2022/08/22 01:17:01;;;;;;;5.80;2.80;;;;;;;17.21;94.73;100456.34;3499068;82;98878;-90
2022/08/22 01:22:35;;;;;;;8.08;3.02;;;;;;;17.20;94.75;100463.11;3510139;82;26420;-91
2022/08/22 01:28:10;;;;;;;5.60;2.95;;;;;;;17.19;94.98;100480.22;3497434;83;98648;-91
2022/08/22 01:34:08;;;;;;;6.37;2.65;;;;;;;17.19;94.98;100480.22;3501422;83;38686;-91
2022/08/22 01:39:15;;;;;;;5.78;2.98;;;;;;;17.19;94.81;100476.84;3480817;83;98663;-91
2022/08/22 01:44:55;;;;;;;7.47;3.07;;;;;;;17.19;94.97;100478.23;3492921;83;27002;-91
2022/08/22 01:50:01;;;;;;;5.58;2.77;;;;;;;17.20;95.01;100479.80;3504380;82;98410;-90
2022/08/22 01:55:13;;;;;;;7.15;2.87;;;;;;;17.20;95.02;100476.22;3507313;82;25829;-90
2022/08/22 02:00:18;;;;;;;6.37;2.87;;;;;;;17.19;95.19;100474.06;3536182;81;98309;-91
2022/08/22 02:05:55;;;;;;;10.05;3.02;;;;;;;17.20;95.17;100470.66;3540476;82;26439;-90
2022/08/22 02:11:09;;;;;;;6.50;3.27;;;;;;;17.20;94.95;100473.44;3540033;81;39641;-90
2022/08/22 02:16:36;;;;;;;7.53;2.80;;;;;;;17.15;94.87;100471.93;3530584;81;98807;-92
2022/08/22 02:22:04;;;;;;;6.80;2.55;;;;;;;17.13;94.90;100474.95;3529592;83;26437;-92
2022/08/22 02:27:52;;;;;;;8.53;3.85;;;;;;;17.10;94.96;100477.16;3536879;81;98481;-92
2022/08/22 02:33:07;;;;;;;6.10;2.83;;;;;;;17.09;95.04;100488.11;3541517;83;26196;-91
2022/08/22 02:38:26;;;;;;;7.47;2.67;;;;;;;17.05;94.95;100486.00;3532002;81;98432;-90
2022/08/22 02:43:47;;;;;;;5.85;3.00;;;;;;;17.03;95.22;100482.24;3539493;83;26354;-89
2022/08/22 02:49:21;;;;;;;4.45;2.65;;;;;;;17.01;95.25;100487.41;3535229;81;98564;-89
2022/08/22 02:54:36;;;;;;;8.18;2.98;;;;;;;17.01;95.29;100479.08;3541297;81;25972;-88
2022/08/22 03:00:16;;;;;;;7.83;3.10;;;;;;;16.99;95.25;100466.80;3499594;83;98432;-88
2022/08/22 03:05:41;;;;;;;8.08;3.05;;;;;;;16.97;95.27;100463.66;3503358;82;25984;-88
2022/08/22 03:11:09;;;;;;;6.60;3.03;;;;;;;16.95;95.51;100465.46;3486069;83;98686;-88
2022/08/22 03:16:25;;;;;;;7.17;2.57;;;;;;;16.94;95.36;100468.06;3501162;82;98534;-87
2022/08/22 03:21:36;;;;;;;7.50;2.80;;;;;;;16.92;95.58;100470.48;3501755;83;27978;-86
2022/08/22 03:26:51;;;;;;;7.05;2.50;;;;;;;16.92;95.57;100464.13;3490728;82;98719;-87
2022/08/22 03:32:16;;;;;;;7.35;3.02;;;;;;;16.90;95.50;100465.92;3490499;81;26128;-87
2022/08/22 03:37:40;;;;;;;6.05;2.70;;;;;;;16.89;95.66;100464.36;3501130;82;98760;-86
2022/08/22 03:42:52;;;;;;;6.17;2.87;;;;;;;16.87;95.70;100465.98;3509045;82;27677;-87
2022/08/22 03:48:05;;;;;;;5.50;2.60;;;;;;;16.84;95.76;100466.84;3501697;82;98452;-88
2022/08/22 03:53:35;;;;;;;6.50;2.90;;;;;;;16.83;95.82;100462.45;3499226;83;26133;-86
2022/08/22 03:59:21;;;;;;;5.60;2.55;;;;;;;16.81;95.97;100469.84;3496922;82;98701;-88
2022/08/22 04:05:05;;;;;;;5.65;2.70;;;;;;;16.80;95.92;100471.05;3513229;83;25981;-89
2022/08/22 04:10:53;;;;;;;4.95;2.33;;;;;;;16.78;95.90;100471.28;3463844;82;98391;-88
2022/08/22 04:16:12;;;;;;;5.17;2.40;;;;;;;16.78;96.02;100481.02;3505109;82;29418;-87
2022/08/22 04:21:41;;;;;;;6.80;2.85;;;;;;;16.73;96.22;100487.03;3507596;83;25916;-87
2022/08/22 04:26:51;;;;;;;8.78;3.00;;;;;;;16.73;96.32;100488.42;3480704;82;98707;-87
2022/08/22 04:32:24;;;;;;;6.53;2.87;;;;;;;16.74;96.37;100491.38;3490740;82;25823;-86
2022/08/22 04:37:49;;;;;;;7.43;2.87;;;;;;;16.77;96.42;100489.94;3499960;83;98650;-87
2022/08/22 04:42:59;;;;;;;6.43;3.37;;;;;;;16.79;96.39;100499.26;3426846;82;32201;-88
2022/08/22 04:48:23;;;;;;;4.50;2.47;;;;;;;16.81;96.65;100507.96;3445874;83;98705;-87
2022/08/22 04:53:41;;;;;;;10.38;2.67;;;;;;;16.83;96.67;100506.92;3475243;83;25842;-87
2022/08/22 04:59:12;;;;;;;4.97;2.95;;;;;;;16.85;96.63;100504.54;3453741;83;98658;-86
2022/08/22 05:04:20;;;;;;;7.45;2.60;;;;;;;16.87;96.62;100505.70;3467937;83;26353;-86
2022/08/22 05:09:29;;;;;;;5.00;2.75;;;;;;;16.91;96.62;100516.77;3483755;83;98625;-85
2022/08/22 05:14:44;;;;;;;6.00;2.83;;;;;;;16.93;96.50;100522.69;3483805;83;26468;-85
2022/08/22 05:19:49;;;;;;;6.35;2.92;;;;;;;16.95;96.58;100519.67;3471376;83;98475;-85
2022/08/22 05:25:04;;;;;;;9.47;3.30;;;;;;;16.97;96.44;100523.44;3480226;82;26404;-86
2022/08/22 05:30:12;;;;;;;9.65;3.27;;;;;;;16.99;96.40;100532.14;3474400;82;98375;-85
2022/08/22 05:35:17;;;;;;;7.05;3.50;;;;;;;17.01;96.32;100526.34;3448824;82;26852;-86
2022/08/22 05:40:25;;;;;;;6.08;3.02;;;;;;;17.03;96.25;100525.34;3468979;82;98384;-86
2022/08/22 05:45:28;;;;;;;6.47;3.17;;;;;;;17.07;96.23;100535.80;3482452;82;26206;-86
2022/08/22 05:50:44;;;;;;;6.45;2.95;;;;;;;17.10;96.09;100533.58;3457494;82;98380;-87
2022/08/22 05:56:04;;;;;;;7.65;3.60;;;;;;;17.12;96.16;100536.72;3483775;83;26443;-87
2022/08/22 06:01:23;;;;;;;8.70;3.42;;;;;;;17.14;96.26;100536.31;3461217;83;25983;-86
2022/08/22 06:06:27;;;;;;;7.92;3.92;;;;;;;17.17;96.17;100541.05;3450068;83;98777;-87
2022/08/22 06:11:59;;;;;;;6.97;3.62;;;;;;;17.19;96.04;100545.58;3415802;84;25868;-87
2022/08/22 06:17:19;;;;;;;9.43;3.83;;;;;;;17.21;96.01;100545.94;3455536;83;98479;-87
2022/08/22 06:22:25;;;;;;;9.67;4.43;;;;;;;17.20;96.18;100553.52;3404656;85;25864;-87
2022/08/22 06:27:28;;;;;;;8.65;3.90;;;;;;;17.21;96.19;100549.52;3415428;83;98976;-88
2022/08/22 06:32:33;;;;;;;9.50;4.33;;;;;;;17.25;96.30;100545.29;3490414;82;26660;-88
2022/08/22 06:37:39;;;;;;;7.53;4.20;;;;;;;17.27;96.37;100554.80;3475558;82;99562;-87
2022/08/22 06:42:45;;;;;;;9.28;4.42;;;;;;;17.30;96.47;100549.80;3480647;83;26155;-87
2022/08/22 06:47:58;;;;;;;8.60;4.75;;;;;;;17.34;96.34;100547.73;3478788;83;98483;-87
2022/08/22 06:53:15;;;;;;;8.83;4.17;;;;;;;17.40;96.36;100555.05;3470323;82;26524;-86
2022/08/22 06:58:40;;;;;;;12.03;5.47;;;;;;;17.45;96.38;100553.19;3479286;82;98635;-87
2022/08/22 07:03:45;;;;;;;10.43;4.85;;;;;;;17.50;96.42;100554.11;3479911;82;28567;-87
2022/08/22 07:08:53;;;;;;;7.37;4.28;;;;;;;17.56;96.53;100559.37;3496947;82;98698;-87
2022/08/22 07:14:10;;;;;;;9.15;4.35;;;;;;;17.61;96.57;100568.65;3476065;83;26031;-86
2022/08/22 07:19:37;;;;;;;10.13;5.37;;;;;;;17.65;96.45;100567.38;3479200;82;98769;-86
2022/08/22 07:24:43;;;;;;;8.83;4.87;;;;;;;17.69;96.46;100563.95;3479224;83;26376;-87
2022/08/22 07:30:02;;;;;;;12.58;5.35;;;;;;;17.75;96.41;100567.82;3500619;82;98348;-86
2022/08/22 07:35:11;;;;;;;10.80;5.33;;;;;;;17.79;96.37;100565.77;3480766;83;25911;-87
2022/08/22 07:40:47;;;;;;;11.60;6.28;;;;;;;17.85;96.54;100570.25;3486422;82;98490;-88
2022/08/22 07:45:53;;;;;;;11.97;6.53;;;;;;;17.89;96.67;100566.80;3476807;82;25658;-89
2022/08/22 07:51:16;;;;;;;9.45;5.67;;;;;;;17.94;97.01;100569.11;3483925;82;98722;-86
2022/08/22 07:56:25;;;;;;;9.13;5.97;;;;;;;17.99;96.98;100566.62;3481719;82;98642;-87
2022/08/22 08:01:28;;;;;;;16.02;7.60;;;;;;;18.05;97.13;100561.36;3463788;82;25770;-88
2022/08/22 08:06:31;;;;;;;8.53;5.30;;;;;;;18.11;97.23;100559.67;3476173;83;98714;-89
2022/08/22 08:11:38;;;;;;;12.73;5.22;;;;;;;18.14;97.39;100557.44;3451324;83;25911;-87
2022/08/22 08:16:45;;;;;;;10.40;5.37;;;;;;;18.16;97.26;100561.97;3435068;84;98635;-89
2022/08/22 08:21:53;;;;;;;12.53;6.25;;;;;;;18.20;97.32;100561.31;3445620;83;26521;-89
2022/08/22 08:32:18;;;;;;;11.73;6.17;;;;;;;18.27;97.11;100568.94;3446263;83;26832;-88
2022/08/22 08:37:46;;;;;;;9.80;5.83;;;;;;;18.31;97.36;100563.30;3456223;84;98715;-90
2022/08/22 08:49:01;;;;;;;13.10;6.20;;;;;;;18.40;97.72;100565.73;3437296;83;98664;-89
2022/08/22 08:54:54;;;;;;;9.90;6.12;;;;;;;18.46;97.89;100569.59;3436570;83;432361;-90
2022/08/22 09:00:06;;;;;;;12.83;7.57;;;;;;;18.54;97.79;100566.84;3366824;83;2482558;-89
2022/08/22 09:05:29;;;;;;;12.95;7.47;;;;;;;18.57;98.08;100570.18;3378301;84;453329;-89
2022/08/22 09:10:56;;;;;;;12.95;8.43;;;;;;;18.63;98.19;100579.62;3461206;83;255962;-87
2022/08/22 09:16:19;;;;;;;12.03;8.03;;;;;;;18.66;98.10;100570.41;3437617;84;99026;-87
2022/08/22 09:21:33;;;;;;;11.55;7.22;;;;;;;18.71;98.07;100572.70;3438674;84;25744;-86
2022/08/22 09:26:48;;;;;;;12.73;7.12;;;;;;;18.76;98.08;100572.80;3433908;85;98818;-87
2022/08/22 09:32:20;;;;;;;14.15;8.25;;;;;;;18.85;98.37;100569.62;3445200;84;25931;-86
2022/08/22 09:37:32;;;;;;;13.45;7.70;;;;;;;18.93;98.43;100564.69;3436704;84;98988;-86
2022/08/22 09:42:53;;;;;;;13.32;7.25;;;;;;;19.00;98.76;100563.93;3432216;85;25896;-87
2022/08/22 09:48:05;;;;;;;12.88;7.40;;;;;;;19.08;98.80;100562.55;3439135;84;99078;-87
2022/08/22 09:53:23;;;;;;;11.55;7.53;;;;;;;19.19;99.07;100559.55;3451646;83;25846;-87
2022/08/22 09:58:53;;;;;;;15.75;7.78;;;;;;;19.30;99.53;100563.69;3433392;83;98641;-88
2022/08/22 10:04:42;;;;;;;12.60;6.75;;;;;;;19.42;99.63;100565.84;3537650;83;25995;-88
2022/08/22 10:10:24;;;;;;;18.32;7.62;;;;;;;19.53;99.65;100564.18;3516912;83;98510;-88
2022/08/22 10:15:31;;;;;;;11.55;6.12;;;;;;;19.69;99.63;100569.78;3529723;82;26055;-88
2022/08/22 10:21:12;;;;;;;11.00;5.78;;;;;;;19.78;99.18;100564.39;3520254;83;98933;-91
2022/08/22 10:26:21;;;;;;;12.25;5.70;;;;;;;19.83;99.05;100564.64;3530157;82;99149;-89
2022/08/22 10:31:46;;;;;;;8.35;5.15;;;;;;;19.89;98.75;100562.13;3532090;82;26378;-88
2022/08/22 10:37:22;;;;;;;11.90;5.72;;;;;;;19.94;98.77;100556.02;3513256;82;98437;-88
2022/08/22 10:42:50;;;;;;;12.47;4.83;;;;;;;20.03;98.33;100563.15;3430827;83;26334;-85
2022/08/22 10:48:05;;;;;;;9.38;4.78;;;;;;;20.06;97.96;100568.64;3519441;82;99070;-86
2022/08/22 10:53:32;;;;;;;8.73;4.93;;;;;;;20.04;97.58;100570.30;3532546;82;26002;-85
2022/08/22 10:58:41;;;;;;;10.18;4.58;;;;;;;20.05;97.31;100567.71;3510499;82;98697;-85
2022/08/22 11:03:51;;;;;;;9.08;4.42;;;;;;;20.05;96.85;100570.50;3495128;83;27589;-85
2022/08/22 11:09:21;;;;;;;8.83;4.00;;;;;;;20.00;96.39;100568.23;3473185;82;98829;-85
2022/08/22 11:14:52;;;;;;;8.55;4.35;;;;;;;19.97;96.12;100568.50;3489286;83;25654;-85
2022/08/22 11:20:10;;;;;;;8.45;4.87;;;;;;;19.95;96.16;100573.72;3499781;82;98459;-84
2022/08/22 11:25:40;;;;;;;9.03;4.85;;;;;;;19.92;95.98;100571.02;3507278;82;28446;-85
2022/08/22 11:31:05;;;;;;;12.35;4.87;;;;;;;19.84;95.86;100586.39;3384189;83;98782;-85
2022/08/22 11:36:45;;;;;;;9.20;3.40;;;;;;;19.67;96.25;100597.38;3463793;82;98547;-85
2022/08/22 11:42:25;;;;;;;10.08;3.87;;;;;;;19.41;96.38;100583.77;3403658;82;25786;-84
2022/08/22 11:47:43;;;;;;;6.45;3.15;;;;;;;19.36;96.55;100585.71;3472035;82;99502;-84
2022/08/22 11:52:58;;;;;;;6.95;2.85;;;;;;;19.36;96.48;100589.10;3477868;83;25691;-85
2022/08/22 11:58:45;;;;;;;5.33;2.77;;;;;;;19.31;96.36;100592.40;3450500;82;98760;-86
2022/08/22 12:04:12;;;;;;;4.65;2.22;;;;;;;19.31;96.08;100604.36;3486810;82;25973;-85
2022/08/22 12:09:31;;;;;;;7.22;2.67;;;;;;;19.21;95.78;100597.00;3458748;83;98782;-84
2022/08/22 12:14:56;;;;;;;5.97;2.55;;;;;;;19.15;95.80;100593.70;3468430;82;2183932;-84
2022/08/22 12:20:05;;;;;;;6.47;2.65;;;;;;;19.11;95.87;100589.60;3470969;82;102237;-84
2022/08/22 12:25:43;;;;;;;6.50;2.80;;;;;;;19.09;95.75;100579.49;3487593;84;49602;-85
2022/08/22 12:31:10;;;;;;;7.10;2.47;;;;;;;19.12;95.72;100581.41;3495524;82;98307;-84
2022/08/22 12:36:29;;;;;;;8.38;2.85;;;;;;;19.11;95.81;100582.63;3475218;83;98660;-86
2022/08/22 12:41:44;;;;;;;5.50;2.47;;;;;;;19.13;95.67;100579.41;3443096;83;28182;-84
2022/08/22 12:46:59;;;;;;;6.42;2.55;;;;;;;19.11;95.67;100578.44;3471272;83;98423;-85
2022/08/22 12:52:12;;;;;;;3.90;2.27;;;;;;;19.10;95.72;100573.28;3351144;85;39250;-85
2022/08/22 12:57:44;;;;;;;4.92;2.35;;;;;;;19.08;95.47;100578.52;3439727;84;98817;-86
2022/08/22 13:02:45;;;;;;;4.80;2.58;;;;;;;19.11;95.87;100577.05;3423695;84;39043;-86
2022/08/22 13:08:07;;;;;;;7.12;3.33;;;;;;;19.16;96.18;100565.38;3401803;85;98890;-87
2022/08/22 13:13:13;;;;;;;4.95;2.70;;;;;;;19.25;96.63;100557.84;3399993;85;25745;-87
2022/08/22 13:18:23;;;;;;;7.17;3.00;;;;;;;19.37;96.97;100557.97;3384823;85;2522310;-88
2022/08/22 13:23:31;;;;;;;8.03;3.60;;;;;;;19.52;97.37;100552.22;3499159;82;669310;-88
2022/08/22 13:28:46;;;;;;;6.95;3.50;;;;;;;19.67;97.36;100554.09;3479806;82;98831;-88
2022/08/22 13:33:48;;;;;;;8.20;2.93;;;;;;;19.79;97.39;100553.39;3496386;83;27133;-89
2022/08/22 13:38:55;;;;;;;6.70;3.17;;;;;;;19.96;97.19;100543.19;3465575;83;98623;-91
2022/08/22 13:44:10;;;;;;;5.58;2.80;;;;;;;20.07;96.86;100535.34;3458157;84;32542;-90
2022/08/22 13:49:17;;;;;;;6.22;2.90;;;;;;;20.18;96.68;100538.64;3469724;82;98754;-91
2022/08/22 13:54:53;;;;;;;6.10;2.98;;;;;;;20.31;96.57;100528.30;3484224;82;26263;-90
2022/08/22 14:00:21;;;;;;;8.73;3.55;;;;;;;20.44;96.16;100533.95;3485302;83;98758;-90
2022/08/22 14:05:33;;;;;;;6.80;3.30;;;;;;;20.52;95.73;100536.72;3499940;83;25917;-89
2022/08/22 14:10:39;;;;;;;8.43;3.70;;;;;;;20.64;95.31;100522.78;3484423;82;98809;-89
2022/08/22 14:15:40;;;;;;;6.15;3.52;;;;;;;20.73;95.11;100520.73;3503932;82;28547;-91
2022/08/22 14:20:43;;;;;;;6.70;3.17;;;;;;;20.81;95.45;100513.73;3495836;82;98392;-92
2022/08/22 14:25:44;;;;;;;9.78;3.25;;;;;;;20.91;95.00;100509.23;3500720;84;70481;-92
2022/08/22 14:31:05;;;;;;;7.43;3.07;;;;;;;21.00;94.58;100500.19;3488283;83;98274;-93
2022/08/22 14:36:30;;;;;;;6.85;2.90;;;;;;;21.12;93.99;100507.80;3501877;82;98479;-91
2022/08/22 14:41:45;;;;;;;8.93;3.40;;;;;;;21.23;94.13;100509.05;3442814;84;26341;-92
2022/08/22 14:46:57;;;;;;;7.67;3.22;;;;;;;21.34;93.80;100505.91;3465171;83;98787;-92
2022/08/22 14:52:10;;;;;;;8.58;3.25;;;;;;;21.46;93.22;100504.52;3496561;83;33043;-93
2022/08/22 14:57:13;;;;;;;6.60;3.25;;;;;;;21.51;92.49;100510.95;3481672;83;98558;-92
2022/08/22 15:02:28;;;;;;;7.67;3.40;;;;;;;21.58;92.37;100514.92;3462122;82;26326;-93
2022/08/22 15:07:33;;;;;;;5.90;2.90;;;;;;;21.65;91.54;100516.11;3491939;82;98949;-95
2022/08/22 15:12:52;;;;;;;6.83;3.08;;;;;;;21.68;91.62;100509.62;3475714;83;26517;-92
2022/08/22 15:17:55;;;;;;;9.00;3.08;;;;;;;21.72;90.78;100515.91;3485302;82;98582;-94
2022/08/22 15:23:03;;;;;;;4.55;2.40;;;;;;;21.63;90.35;100515.76;3441757;84;26038;-94
2022/08/22 15:28:10;;;;;;;8.03;3.27;;;;;;;21.73;91.15;100509.06;3407553;83;454089;-94
2022/08/22 15:33:30;;;;;;;6.87;2.75;;;;;;;21.83;90.68;100507.92;3478256;83;25889;-93
2022/08/22 15:38:37;;;;;;;7.45;2.70;;;;;;;21.92;90.34;100512.84;3473608;83;98762;-94
2022/08/22 15:43:46;;;;;;;4.42;2.22;;;;;;;21.97;89.98;100523.48;3470261;83;26236;-93
2022/08/22 15:49:05;;;;;;;10.50;3.22;;;;;;;22.00;89.78;100514.95;3493528;82;98847;-95
2022/08/22 15:54:20;;;;;;;6.25;3.05;;;;;;;22.06;89.69;100507.53;3440431;84;36323;-94
2022/08/22 15:59:40;;;;;;;7.13;3.63;;;;;;;22.08;88.90;100507.84;3464511;82;98845;-94
2022/08/22 16:05:04;;;;;;;7.92;2.72;;;;;;;22.04;88.78;100511.41;3437060;83;25872;-94
2022/08/22 16:10:25;;;;;;;5.47;2.90;;;;;;;22.05;88.66;100510.17;3476613;82;98334;-93
2022/08/22 16:15:50;;;;;;;7.72;3.55;;;;;;;22.01;88.35;100504.53;3417509;83;26347;-94
2022/08/22 16:20:55;;;;;;;4.83;2.73;;;;;;;21.97;88.15;100498.25;3432336;84;98170;-94
2022/08/22 16:26:04;;;;;;;6.28;3.27;;;;;;;21.88;87.72;100501.75;3450263;82;98521;-91
2022/08/22 16:31:31;;;;;;;11.12;3.75;;;;;;;21.79;87.73;100493.88;3431848;82;26058;-94
2022/08/22 16:37:09;;;;;;;9.98;3.85;;;;;;;21.78;87.74;100500.69;3465768;83;99051;-94
2022/08/22 16:42:22;;;;;;;7.43;3.40;;;;;;;21.68;87.62;100508.86;3389463;85;43338;-93
2022/08/22 16:47:35;;;;;;;10.05;3.72;;;;;;;21.58;87.69;100509.95;3445497;83;98506;-93
2022/08/22 16:52:53;;;;;;;7.62;3.85;;;;;;;21.48;87.71;100509.04;3423069;83;26145;-93
2022/08/22 16:58:17;;;;;;;11.03;3.83;;;;;;;21.42;87.80;100510.07;3421924;84;98892;-93
2022/08/22 17:04:05;;;;;;;5.92;3.10;;;;;;;21.32;87.86;100515.39;3461961;82;25875;-92
2022/08/22 17:09:38;;;;;;;6.85;3.77;;;;;;;21.19;88.04;100520.20;3510604;82;98525;-93
2022/08/22 17:15:34;;;;;;;5.85;3.20;;;;;;;21.08;88.18;100519.74;3506932;82;26549;-93
2022/08/22 17:20:52;;;;;;;7.47;3.37;;;;;;;20.99;88.27;100528.77;3492506;83;98643;-92
2022/08/22 17:26:22;;;;;;;8.28;3.65;;;;;;;20.85;88.51;100525.58;3517462;83;25943;-93
2022/08/22 17:31:51;;;;;;;7.83;3.77;;;;;;;20.74;88.73;100520.91;3493012;83;25809;-93
2022/08/22 17:37:20;;;;;;;6.75;3.55;;;;;;;20.59;89.15;100524.72;3497794;82;98846;-93
2022/08/22 17:42:48;;;;;;;4.53;2.75;;;;;;;20.48;89.50;100522.07;3490742;83;57123;-93
2022/08/22 17:48:13;;;;;;;9.63;3.75;;;;;;;20.35;89.85;100519.22;3513249;83;98672;-92
2022/08/22 17:53:31;;;;;;;7.13;3.57;;;;;;;20.27;90.06;100519.22;3495568;82;26558;-94
2022/08/22 17:58:41;;;;;;;8.30;3.65;;;;;;;20.21;90.33;100530.00;3498996;82;98518;-93
2022/08/22 18:03:47;;;;;;;6.87;3.67;;;;;;;20.12;90.46;100539.61;3471492;83;25796;-94
2022/08/22 18:08:59;;;;;;;9.05;4.60;;;;;;;20.05;90.83;100537.74;3440118;83;98337;-94
2022/08/22 18:14:06;;;;;;;6.30;3.80;;;;;;;19.97;91.25;100539.16;3444694;83;26110;-93
2022/08/22 18:19:21;;;;;;;8.03;4.62;;;;;;;19.88;91.48;100538.98;3468776;83;98512;-93
2022/08/22 18:24:33;;;;;;;6.90;3.98;;;;;;;19.82;92.00;100539.34;3449263;83;26245;-93
2022/08/22 18:29:48;;;;;;;9.73;3.92;;;;;;;19.73;92.32;100536.98;3417607;84;98337;-92
2022/08/22 18:34:57;;;;;;;10.50;4.45;;;;;;;19.69;92.56;100541.86;3465107;83;26403;-93
2022/08/22 18:40:20;;;;;;;8.40;4.62;;;;;;;19.61;92.82;100541.24;3457203;83;98461;-93
2022/08/22 18:45:47;;;;;;;7.58;4.58;;;;;;;19.59;93.03;100551.27;3465154;84;25958;-94
2022/08/22 18:50:48;;;;;;;;;;;;;;;19.53;93.25;100545.44;3442641;84;98132;-94
2022/08/22 18:55:55;;;;;;;8.30;4.70;;;;;;;19.46;94.37;100544.19;3469501;83;25891;-94
2022/08/22 19:01:04;;;;;;;7.90;4.15;;;;;;;19.42;93.83;100551.08;3458141;83;26009;-94
2022/08/22 19:06:16;;;;;;;7.47;3.80;;;;;;;19.36;93.96;100545.84;3429782;83;98442;-93
2022/08/22 19:11:30;;;;;;;7.12;3.87;;;;;;;19.33;94.17;100550.28;3463707;83;106961;-93
2022/08/22 19:17:02;;;;;;;7.05;4.42;;;;;;;19.28;94.68;100551.39;3443478;83;98642;-93
2022/08/22 19:22:24;;;;;;;11.68;4.85;;;;;;;19.23;94.65;100553.32;3463744;83;26761;-93
2022/08/22 19:27:29;;;;;;;10.83;4.90;;;;;;;19.17;95.19;100553.59;3442241;83;98738;-93
2022/08/22 19:32:54;;;;;;;8.40;4.05;;;;;;;19.13;95.46;100560.65;3447398;84;32452;-93
2022/08/22 19:37:58;;;;;;;8.70;4.17;;;;;;;19.10;95.60;100555.95;3454072;83;98663;-93
2022/08/22 19:43:04;;;;;;;9.23;5.50;;;;;;;19.08;95.66;100567.36;3459936;83;26790;-94
2022/08/22 19:48:09;;;;;;;9.83;4.25;;;;;;;19.07;95.61;100573.54;3445175;84;98694;-93
2022/08/22 19:53:53;;;;;;;8.50;4.20;;;;;;;19.05;95.50;100577.38;3392013;86;25955;-92
2022/08/22 19:59:58;;;;;;;9.35;4.50;;;;;;;19.04;95.50;100580.59;3418999;84;98450;-94
2022/08/22 20:05:26;;;;;;;8.53;4.22;;;;;;;19.02;95.56;100583.03;3456582;83;26234;-92
2022/08/22 20:10:44;;;;;;;9.73;5.00;;;;;;;19.00;95.52;100584.86;3429496;84;98309;-94
2022/08/22 20:16:15;;;;;;;7.50;4.60;;;;;;;18.99;95.62;100589.45;3374712;86;26126;-91
2022/08/22 20:21:57;;;;;;;9.15;4.55;;;;;;;18.98;95.56;100580.92;3445030;84;26342;-94
2022/08/22 20:27:03;;;;;;;8.00;4.20;;;;;;;18.95;95.58;100567.22;3434309;84;98466;-93
2022/08/22 20:32:05;;;;;;;8.33;4.30;;;;;;;18.93;95.60;100566.88;3450753;84;25991;-92
2022/08/22 20:37:07;;;;;;;7.10;4.05;;;;;;;18.92;95.68;100561.09;3434595;85;98777;-92
2022/08/22 20:42:12;;;;;;;8.48;5.15;;;;;;;18.91;95.81;100552.55;3442135;84;26850;-93
2022/08/22 20:47:21;;;;;;;9.55;4.85;;;;;;;18.88;95.93;100548.45;3383321;86;98868;-93
2022/08/22 20:52:35;;;;;;;7.85;4.67;;;;;;;18.87;96.13;100548.28;3480809;83;25951;-92
2022/08/22 20:57:48;;;;;;;11.70;5.72;;;;;;;18.84;96.25;100549.92;3466291;83;99523;-93
2022/08/22 21:03:03;;;;;;;12.25;5.12;;;;;;;18.83;96.47;100549.75;3503034;83;25776;-94
2022/08/22 21:08:23;;;;;;;9.38;4.35;;;;;;;18.82;96.60;100549.58;3496516;82;99024;-92
2022/08/22 21:13:32;;;;;;;8.48;4.05;;;;;;;18.78;96.67;100549.45;3512845;81;25973;-94
2022/08/22 21:18:39;;;;;;;7.17;4.00;;;;;;;18.75;96.72;100546.91;3485294;82;98791;-93
2022/08/22 21:23:44;;;;;;;10.20;4.10;;;;;;;18.71;96.89;100545.42;3501350;83;25879;-94
2022/08/22 21:29:00;;;;;;;7.70;3.83;;;;;;;18.68;96.86;100542.08;3493756;82;98957;-92
2022/08/22 21:34:02;;;;;;;6.27;3.90;;;;;;;18.64;96.83;100542.16;3506082;82;40589;-92
2022/08/22 21:39:14;;;;;;;9.00;3.62;;;;;;;18.62;96.60;100532.05;3474453;82;98562;-93
2022/08/22 21:44:35;;;;;;;8.23;3.67;;;;;;;18.62;96.58;100535.44;3458532;83;25851;-93
2022/08/22 21:49:36;;;;;;;11.00;3.65;;;;;;;18.58;96.42;100514.60;3499293;81;98274;-92
2022/08/22 21:54:39;;;;;;;8.10;3.70;;;;;;;18.55;96.57;100521.05;3479541;83;26142;-92
2022/08/22 21:59:44;;;;;;;10.13;3.77;;;;;;;18.50;96.68;100530.50;3508466;83;98389;-93
2022/08/22 22:04:45;;;;;;;9.53;3.47;;;;;;;18.46;96.66;100522.22;3494297;83;25894;-92
2022/08/22 22:09:47;;;;;;;6.53;2.80;;;;;;;18.44;96.62;100522.46;3515689;82;98371;-92
2022/08/22 22:14:49;;;;;;;9.63;3.35;;;;;;;18.40;96.80;100518.35;3517137;83;40387;-93
2022/08/22 22:19:50;;;;;;;4.33;2.60;;;;;;;18.38;96.61;100513.03;3515781;82;98381;-91
2022/08/22 22:24:51;;;;;;;9.33;3.20;;;;;;;18.37;96.54;100504.49;3515072;82;25707;-93
2022/08/22 22:29:52;;;;;;;8.07;2.80;;;;;;;18.37;96.65;100507.28;3524996;82;98640;-92
2022/08/22 22:34:54;;;;;;;8.57;3.10;;;;;;;18.33;96.56;100492.03;3505979;83;34422;-92
2022/08/22 22:39:55;;;;;;;5.83;2.80;;;;;;;18.31;96.37;100493.64;3515983;82;98663;-93
2022/08/22 22:44:56;;;;;;;7.17;2.50;;;;;;;18.32;96.42;100489.66;3506234;83;28456;-92
2022/08/22 22:49:57;;;;;;;5.47;2.47;;;;;;;18.30;96.22;100490.05;3510051;82;98637;-93
2022/08/22 22:54:58;;;;;;;6.43;2.63;;;;;;;18.28;96.16;100487.52;3513956;83;33203;-93
2022/08/22 23:00:00;;;;;;;6.23;3.13;;;;;;;18.28;96.23;100490.30;3490317;82;98519;-93
2022/08/22 23:05:01;;;;;;;7.37;2.90;;;;;;;18.26;96.33;100486.54;3512249;83;26446;-93
2022/08/22 23:10:05;;;;;;;6.20;2.63;;;;;;;18.24;96.41;100490.38;3495600;82;98707;-93
2022/08/22 23:15:07;;;;;;;10.55;2.75;;;;;;;18.24;96.35;100490.96;3502252;83;26136;-93
2022/08/22 23:20:10;;;;;;;4.65;2.50;;;;;;;18.22;96.44;100501.17;3475569;83;98961;-93
2022/08/22 23:25:11;;;;;;;6.75;2.60;;;;;;;18.23;96.45;100499.95;3507475;83;25908;-93
2022/08/22 23:30:12;;;;;;;6.07;2.90;;;;;;;18.23;96.37;100503.33;3478393;82;98603;-92
2022/08/22 23:35:13;;;;;;;6.10;2.77;;;;;;;18.23;96.43;100500.55;3503054;83;26368;-92
2022/08/22 23:40:14;;;;;;;9.23;2.97;;;;;;;18.24;96.48;100501.52;3508949;82;98754;-92
2022/08/22 23:45:15;;;;;;;6.30;2.77;;;;;;;18.24;96.43;100499.32;3515465;83;33209;-93
2022/08/22 23:50:16;;;;;;;7.33;2.80;;;;;;;18.24;96.52;100492.36;3490805;82;98518;-93
2022/08/22 23:55:18;;;;;;;6.23;2.90;;;;;;;18.23;96.49;100499.14;3515198;83;33214;-94
